sensor_id;sensor_type;location;lat;lon;timestamp;P1;durP1;ratioP1;P2;durP2;ratioP2
64885;SDS011;51514;52.206;5.114;2023-02-10T00:01:39;29.33;;;14.50;;
64885;SDS011;51514;52.206;5.114;2023-02-10T00:04:05;23.02;;;14.18;;
64885;SDS011;51514;52.206;5.114;2023-02-10T00:06:30;23.85;;;12.98;;
64885;SDS011;51514;52.206;5.114;2023-02-10T00:08:57;27.88;;;13.38;;
64885;SDS011;51514;52.206;5.114;2023-02-10T00:11:24;24.58;;;12.25;;
64885;SDS011;51514;52.206;5.114;2023-02-10T00:14:10;24.48;;;11.98;;
64885;SDS011;51514;52.206;5.114;2023-02-10T00:16:36;31.30;;;11.75;;
64885;SDS011;51514;52.206;5.114;2023-02-10T00:19:02;24.98;;;11.73;;
64885;SDS011;51514;52.206;5.114;2023-02-10T00:21:27;19.85;;;10.88;;
64885;SDS011;51514;52.206;5.114;2023-02-10T00:23:53;29.52;;;12.20;;
64885;SDS011;51514;52.206;5.114;2023-02-10T00:26:18;22.13;;;11.43;;
64885;SDS011;51514;52.206;5.114;2023-02-10T00:28:43;26.55;;;12.45;;
64885;SDS011;51514;52.206;5.114;2023-02-10T00:31:10;18.88;;;10.98;;
64885;SDS011;51514;52.206;5.114;2023-02-10T00:33:37;19.90;;;10.93;;
64885;SDS011;51514;52.206;5.114;2023-02-10T00:36:07;25.13;;;11.30;;
64885;SDS011;51514;52.206;5.114;2023-02-10T00:38:34;21.90;;;11.60;;
64885;SDS011;51514;52.206;5.114;2023-02-10T00:41:06;18.65;;;10.57;;
64885;SDS011;51514;52.206;5.114;2023-02-10T00:43:33;23.48;;;10.82;;
64885;SDS011;51514;52.206;5.114;2023-02-10T00:45:58;25.55;;;11.65;;
64885;SDS011;51514;52.206;5.114;2023-02-10T00:48:24;16.30;;;9.52;;
64885;SDS011;51514;52.206;5.114;2023-02-10T00:50:50;23.90;;;9.25;;
64885;SDS011;51514;52.206;5.114;2023-02-10T00:53:15;16.35;;;8.98;;
64885;SDS011;51514;52.206;5.114;2023-02-10T00:55:40;22.38;;;10.77;;
64885;SDS011;51514;52.206;5.114;2023-02-10T00:58:06;21.90;;;11.63;;
64885;SDS011;51514;52.206;5.114;2023-02-10T01:00:31;18.02;;;11.25;;
64885;SDS011;51514;52.206;5.114;2023-02-10T01:02:56;20.17;;;11.13;;
64885;SDS011;51514;52.206;5.114;2023-02-10T01:05:22;23.73;;;11.48;;
64885;SDS011;51514;52.206;5.114;2023-02-10T01:07:47;17.80;;;11.63;;
64885;SDS011;51514;52.206;5.114;2023-02-10T01:10:12;19.00;;;10.98;;
64885;SDS011;51514;52.206;5.114;2023-02-10T01:12:38;14.50;;;10.00;;
64885;SDS011;51514;52.206;5.114;2023-02-10T01:15:03;19.35;;;10.65;;
64885;SDS011;51514;52.206;5.114;2023-02-10T01:17:29;15.95;;;9.98;;
64885;SDS011;51514;52.206;5.114;2023-02-10T01:19:54;22.02;;;10.88;;
64885;SDS011;51514;52.206;5.114;2023-02-10T01:22:20;16.77;;;10.52;;
64885;SDS011;51514;52.206;5.114;2023-02-10T01:24:46;25.20;;;10.73;;
64885;SDS011;51514;52.206;5.114;2023-02-10T01:27:11;16.55;;;9.65;;
64885;SDS011;51514;52.206;5.114;2023-02-10T01:29:36;15.00;;;9.25;;
64885;SDS011;51514;52.206;5.114;2023-02-10T01:32:02;18.45;;;8.98;;
64885;SDS011;51514;52.206;5.114;2023-02-10T01:34:27;17.95;;;9.45;;
64885;SDS011;51514;52.206;5.114;2023-02-10T01:36:53;16.23;;;9.10;;
64885;SDS011;51514;52.206;5.114;2023-02-10T01:39:18;19.58;;;9.32;;
64885;SDS011;51514;52.206;5.114;2023-02-10T01:41:43;17.80;;;8.20;;
64885;SDS011;51514;52.206;5.114;2023-02-10T01:46:46;14.48;;;9.02;;
64885;SDS011;51514;52.206;5.114;2023-02-10T01:49:13;19.38;;;8.18;;
64885;SDS011;51514;52.206;5.114;2023-02-10T01:51:47;20.90;;;8.15;;
64885;SDS011;51514;52.206;5.114;2023-02-10T01:54:20;13.88;;;8.18;;
64885;SDS011;51514;52.206;5.114;2023-02-10T01:56:49;20.83;;;8.48;;
64885;SDS011;51514;52.206;5.114;2023-02-10T01:59:16;19.50;;;8.95;;
64885;SDS011;51514;52.206;5.114;2023-02-10T02:01:44;16.00;;;9.10;;
64885;SDS011;51514;52.206;5.114;2023-02-10T02:04:10;20.38;;;9.73;;
64885;SDS011;51514;52.206;5.114;2023-02-10T02:06:35;15.23;;;8.77;;
64885;SDS011;51514;52.206;5.114;2023-02-10T02:09:01;20.67;;;8.93;;
64885;SDS011;51514;52.206;5.114;2023-02-10T02:11:37;17.35;;;8.50;;
64885;SDS011;51514;52.206;5.114;2023-02-10T02:14:26;16.10;;;9.32;;
64885;SDS011;51514;52.206;5.114;2023-02-10T02:28:28;16.33;;;9.82;;
64885;SDS011;51514;52.206;5.114;2023-02-10T02:33:58;18.13;;;9.95;;
64885;SDS011;51514;52.206;5.114;2023-02-10T02:36:29;19.58;;;10.25;;
64885;SDS011;51514;52.206;5.114;2023-02-10T02:39:03;18.42;;;9.25;;
64885;SDS011;51514;52.206;5.114;2023-02-10T02:41:30;18.80;;;9.65;;
64885;SDS011;51514;52.206;5.114;2023-02-10T02:43:56;20.33;;;9.93;;
64885;SDS011;51514;52.206;5.114;2023-02-10T02:46:30;13.55;;;9.40;;
64885;SDS011;51514;52.206;5.114;2023-02-10T02:51:36;16.67;;;10.57;;
64885;SDS011;51514;52.206;5.114;2023-02-10T03:02:30;15.95;;;9.98;;
64885;SDS011;51514;52.206;5.114;2023-02-10T03:04:58;20.90;;;10.50;;
64885;SDS011;51514;52.206;5.114;2023-02-10T03:07:24;19.48;;;10.50;;
64885;SDS011;51514;52.206;5.114;2023-02-10T03:09:49;18.52;;;9.35;;
64885;SDS011;51514;52.206;5.114;2023-02-10T03:12:15;17.27;;;10.27;;
64885;SDS011;51514;52.206;5.114;2023-02-10T03:14:40;21.63;;;11.35;;
64885;SDS011;51514;52.206;5.114;2023-02-10T03:17:06;18.25;;;10.93;;
64885;SDS011;51514;52.206;5.114;2023-02-10T03:19:31;19.42;;;10.52;;
64885;SDS011;51514;52.206;5.114;2023-02-10T03:21:56;18.48;;;11.07;;
64885;SDS011;51514;52.206;5.114;2023-02-10T03:24:22;15.80;;;10.35;;
64885;SDS011;51514;52.206;5.114;2023-02-10T03:26:47;19.75;;;10.88;;
64885;SDS011;51514;52.206;5.114;2023-02-10T03:29:13;21.35;;;11.52;;
64885;SDS011;51514;52.206;5.114;2023-02-10T03:31:39;16.90;;;10.85;;
64885;SDS011;51514;52.206;5.114;2023-02-10T03:34:05;18.88;;;10.93;;
64885;SDS011;51514;52.206;5.114;2023-02-10T03:36:31;18.73;;;9.30;;
64885;SDS011;51514;52.206;5.114;2023-02-10T03:38:58;23.65;;;11.45;;
64885;SDS011;51514;52.206;5.114;2023-02-10T03:41:24;20.25;;;11.18;;
64885;SDS011;51514;52.206;5.114;2023-02-10T03:43:50;19.52;;;11.38;;
64885;SDS011;51514;52.206;5.114;2023-02-10T03:46:15;21.55;;;11.43;;
64885;SDS011;51514;52.206;5.114;2023-02-10T03:48:40;20.83;;;11.63;;
64885;SDS011;51514;52.206;5.114;2023-02-10T03:51:06;28.25;;;11.38;;
64885;SDS011;51514;52.206;5.114;2023-02-10T03:53:32;23.35;;;12.30;;
64885;SDS011;51514;52.206;5.114;2023-02-10T03:55:58;20.90;;;11.80;;
64885;SDS011;51514;52.206;5.114;2023-02-10T03:58:23;22.98;;;11.40;;
64885;SDS011;51514;52.206;5.114;2023-02-10T04:00:49;19.95;;;11.00;;
64885;SDS011;51514;52.206;5.114;2023-02-10T04:03:14;23.20;;;11.23;;
64885;SDS011;51514;52.206;5.114;2023-02-10T04:05:40;25.00;;;12.30;;
64885;SDS011;51514;52.206;5.114;2023-02-10T04:08:05;24.42;;;11.75;;
64885;SDS011;51514;52.206;5.114;2023-02-10T04:10:31;23.35;;;12.10;;
64885;SDS011;51514;52.206;5.114;2023-02-10T04:12:56;25.23;;;12.18;;
64885;SDS011;51514;52.206;5.114;2023-02-10T04:15:21;24.52;;;12.30;;
64885;SDS011;51514;52.206;5.114;2023-02-10T04:17:47;23.05;;;11.73;;
64885;SDS011;51514;52.206;5.114;2023-02-10T04:20:12;18.85;;;11.50;;
64885;SDS011;51514;52.206;5.114;2023-02-10T04:22:38;25.65;;;13.70;;
64885;SDS011;51514;52.206;5.114;2023-02-10T04:25:04;23.52;;;13.13;;
64885;SDS011;51514;52.206;5.114;2023-02-10T04:27:30;22.17;;;12.55;;
64885;SDS011;51514;52.206;5.114;2023-02-10T04:29:56;25.08;;;13.38;;
64885;SDS011;51514;52.206;5.114;2023-02-10T04:32:21;25.92;;;15.23;;
64885;SDS011;51514;52.206;5.114;2023-02-10T04:34:47;24.17;;;13.80;;
64885;SDS011;51514;52.206;5.114;2023-02-10T04:37:13;26.00;;;13.85;;
64885;SDS011;51514;52.206;5.114;2023-02-10T04:39:38;24.80;;;13.95;;
64885;SDS011;51514;52.206;5.114;2023-02-10T04:42:03;30.90;;;16.63;;
64885;SDS011;51514;52.206;5.114;2023-02-10T04:44:29;31.23;;;15.02;;
64885;SDS011;51514;52.206;5.114;2023-02-10T04:46:54;24.65;;;15.15;;
64885;SDS011;51514;52.206;5.114;2023-02-10T04:49:19;24.05;;;14.52;;
64885;SDS011;51514;52.206;5.114;2023-02-10T04:51:45;33.70;;;16.50;;
64885;SDS011;51514;52.206;5.114;2023-02-10T04:54:10;32.70;;;16.40;;
64885;SDS011;51514;52.206;5.114;2023-02-10T04:56:35;27.10;;;15.32;;
64885;SDS011;51514;52.206;5.114;2023-02-10T04:59:01;29.38;;;15.93;;
64885;SDS011;51514;52.206;5.114;2023-02-10T05:01:26;35.90;;;18.23;;
64885;SDS011;51514;52.206;5.114;2023-02-10T05:03:51;29.70;;;16.10;;
64885;SDS011;51514;52.206;5.114;2023-02-10T05:06:17;30.42;;;17.17;;
64885;SDS011;51514;52.206;5.114;2023-02-10T05:08:42;32.60;;;17.85;;
64885;SDS011;51514;52.206;5.114;2023-02-10T05:11:12;38.03;;;17.77;;
64885;SDS011;51514;52.206;5.114;2023-02-10T05:13:38;32.55;;;17.70;;
64885;SDS011;51514;52.206;5.114;2023-02-10T05:16:05;30.80;;;17.77;;
64885;SDS011;51514;52.206;5.114;2023-02-10T05:18:31;29.63;;;17.55;;
64885;SDS011;51514;52.206;5.114;2023-02-10T05:20:57;32.80;;;18.98;;
64885;SDS011;51514;52.206;5.114;2023-02-10T05:23:23;38.42;;;20.52;;
64885;SDS011;51514;52.206;5.114;2023-02-10T05:25:49;34.55;;;18.85;;
64885;SDS011;51514;52.206;5.114;2023-02-10T05:28:14;37.17;;;19.23;;
64885;SDS011;51514;52.206;5.114;2023-02-10T05:30:40;36.58;;;18.48;;
64885;SDS011;51514;52.206;5.114;2023-02-10T05:33:05;42.67;;;21.02;;
64885;SDS011;51514;52.206;5.114;2023-02-10T05:35:30;38.42;;;20.92;;
64885;SDS011;51514;52.206;5.114;2023-02-10T05:37:55;38.60;;;20.75;;
64885;SDS011;51514;52.206;5.114;2023-02-10T05:40:21;40.30;;;21.30;;
64885;SDS011;51514;52.206;5.114;2023-02-10T05:42:47;38.78;;;20.33;;
64885;SDS011;51514;52.206;5.114;2023-02-10T05:45:12;37.25;;;20.88;;
64885;SDS011;51514;52.206;5.114;2023-02-10T05:47:37;39.63;;;20.83;;
64885;SDS011;51514;52.206;5.114;2023-02-10T05:50:03;32.13;;;20.15;;
64885;SDS011;51514;52.206;5.114;2023-02-10T05:52:28;45.58;;;22.77;;
64885;SDS011;51514;52.206;5.114;2023-02-10T05:54:54;42.50;;;21.63;;
64885;SDS011;51514;52.206;5.114;2023-02-10T05:57:19;38.22;;;20.10;;
64885;SDS011;51514;52.206;5.114;2023-02-10T05:59:44;44.47;;;22.27;;
64885;SDS011;51514;52.206;5.114;2023-02-10T06:02:10;47.97;;;23.45;;
64885;SDS011;51514;52.206;5.114;2023-02-10T06:04:35;40.35;;;22.25;;
64885;SDS011;51514;52.206;5.114;2023-02-10T06:07:00;45.88;;;22.58;;
64885;SDS011;51514;52.206;5.114;2023-02-10T06:09:26;37.45;;;20.23;;
64885;SDS011;51514;52.206;5.114;2023-02-10T06:11:52;45.78;;;24.42;;
64885;SDS011;51514;52.206;5.114;2023-02-10T06:14:18;47.70;;;23.83;;
64885;SDS011;51514;52.206;5.114;2023-02-10T06:16:43;43.97;;;23.25;;
64885;SDS011;51514;52.206;5.114;2023-02-10T06:19:09;48.33;;;23.45;;
64885;SDS011;51514;52.206;5.114;2023-02-10T06:21:34;45.63;;;23.52;;
64885;SDS011;51514;52.206;5.114;2023-02-10T06:23:59;50.60;;;25.23;;
64885;SDS011;51514;52.206;5.114;2023-02-10T06:26:25;44.28;;;23.95;;
64885;SDS011;51514;52.206;5.114;2023-02-10T06:28:52;47.13;;;24.60;;
64885;SDS011;51514;52.206;5.114;2023-02-10T06:31:18;47.33;;;24.83;;
64885;SDS011;51514;52.206;5.114;2023-02-10T06:33:43;44.15;;;23.90;;
64885;SDS011;51514;52.206;5.114;2023-02-10T06:36:09;43.58;;;22.75;;
64885;SDS011;51514;52.206;5.114;2023-02-10T06:38:35;43.67;;;23.38;;
64885;SDS011;51514;52.206;5.114;2023-02-10T06:41:01;39.03;;;21.95;;
64885;SDS011;51514;52.206;5.114;2023-02-10T06:43:26;47.60;;;22.65;;
64885;SDS011;51514;52.206;5.114;2023-02-10T06:45:52;46.17;;;23.98;;
64885;SDS011;51514;52.206;5.114;2023-02-10T06:48:17;50.17;;;24.17;;
64885;SDS011;51514;52.206;5.114;2023-02-10T06:50:43;37.10;;;23.10;;
64885;SDS011;51514;52.206;5.114;2023-02-10T06:53:08;41.38;;;21.65;;
64885;SDS011;51514;52.206;5.114;2023-02-10T06:55:33;41.60;;;22.58;;
64885;SDS011;51514;52.206;5.114;2023-02-10T06:58:00;46.10;;;24.27;;
64885;SDS011;51514;52.206;5.114;2023-02-10T07:00:26;44.63;;;22.73;;
64885;SDS011;51514;52.206;5.114;2023-02-10T07:02:52;45.22;;;23.13;;
64885;SDS011;51514;52.206;5.114;2023-02-10T07:05:17;40.28;;;22.20;;
64885;SDS011;51514;52.206;5.114;2023-02-10T07:07:43;44.15;;;23.20;;
64885;SDS011;51514;52.206;5.114;2023-02-10T07:10:08;37.80;;;20.83;;
64885;SDS011;51514;52.206;5.114;2023-02-10T07:12:34;37.35;;;20.90;;
64885;SDS011;51514;52.206;5.114;2023-02-10T07:15:00;37.47;;;20.52;;
64885;SDS011;51514;52.206;5.114;2023-02-10T07:17:25;39.17;;;22.63;;
64885;SDS011;51514;52.206;5.114;2023-02-10T07:19:51;41.50;;;21.52;;
64885;SDS011;51514;52.206;5.114;2023-02-10T07:22:16;38.63;;;20.45;;
64885;SDS011;51514;52.206;5.114;2023-02-10T07:24:41;37.00;;;20.05;;
64885;SDS011;51514;52.206;5.114;2023-02-10T07:27:07;38.42;;;20.38;;
64885;SDS011;51514;52.206;5.114;2023-02-10T07:29:32;33.80;;;18.70;;
64885;SDS011;51514;52.206;5.114;2023-02-10T07:31:57;31.42;;;18.33;;
64885;SDS011;51514;52.206;5.114;2023-02-10T07:34:23;32.25;;;18.60;;
64885;SDS011;51514;52.206;5.114;2023-02-10T07:36:49;35.35;;;18.08;;
64885;SDS011;51514;52.206;5.114;2023-02-10T07:39:21;30.02;;;17.50;;
64885;SDS011;51514;52.206;5.114;2023-02-10T07:41:47;28.70;;;19.08;;
64885;SDS011;51514;52.206;5.114;2023-02-10T07:44:12;32.28;;;17.60;;
64885;SDS011;51514;52.206;5.114;2023-02-10T07:46:38;35.42;;;18.15;;
64885;SDS011;51514;52.206;5.114;2023-02-10T07:49:03;28.48;;;16.70;;
64885;SDS011;51514;52.206;5.114;2023-02-10T07:51:28;28.85;;;16.15;;
64885;SDS011;51514;52.206;5.114;2023-02-10T07:53:54;31.73;;;17.77;;
64885;SDS011;51514;52.206;5.114;2023-02-10T07:56:19;28.08;;;16.77;;
64885;SDS011;51514;52.206;5.114;2023-02-10T07:58:44;26.27;;;16.17;;
64885;SDS011;51514;52.206;5.114;2023-02-10T08:01:10;30.85;;;16.80;;
64885;SDS011;51514;52.206;5.114;2023-02-10T08:03:36;27.48;;;16.77;;
64885;SDS011;51514;52.206;5.114;2023-02-10T08:06:02;27.98;;;16.80;;
64885;SDS011;51514;52.206;5.114;2023-02-10T08:08:28;26.70;;;16.45;;
64885;SDS011;51514;52.206;5.114;2023-02-10T08:10:54;27.35;;;16.02;;
64885;SDS011;51514;52.206;5.114;2023-02-10T08:13:20;29.67;;;16.50;;
64885;SDS011;51514;52.206;5.114;2023-02-10T08:15:46;28.00;;;17.75;;
64885;SDS011;51514;52.206;5.114;2023-02-10T08:18:11;27.42;;;17.05;;
64885;SDS011;51514;52.206;5.114;2023-02-10T08:20:36;27.98;;;16.88;;
64885;SDS011;51514;52.206;5.114;2023-02-10T08:23:02;26.65;;;17.02;;
64885;SDS011;51514;52.206;5.114;2023-02-10T08:25:27;31.30;;;18.88;;
64885;SDS011;51514;52.206;5.114;2023-02-10T08:27:53;28.65;;;17.00;;
64885;SDS011;51514;52.206;5.114;2023-02-10T08:30:18;30.88;;;18.65;;
64885;SDS011;51514;52.206;5.114;2023-02-10T08:32:44;28.40;;;18.92;;
64885;SDS011;51514;52.206;5.114;2023-02-10T08:35:09;28.95;;;17.10;;
64885;SDS011;51514;52.206;5.114;2023-02-10T08:37:35;28.65;;;18.23;;
64885;SDS011;51514;52.206;5.114;2023-02-10T08:40:01;27.17;;;18.35;;
64885;SDS011;51514;52.206;5.114;2023-02-10T08:42:29;30.15;;;18.23;;
64885;SDS011;51514;52.206;5.114;2023-02-10T08:44:54;34.53;;;18.30;;
64885;SDS011;51514;52.206;5.114;2023-02-10T08:47:19;27.85;;;18.08;;
64885;SDS011;51514;52.206;5.114;2023-02-10T08:49:45;31.63;;;18.15;;
64885;SDS011;51514;52.206;5.114;2023-02-10T08:52:10;26.50;;;17.77;;
64885;SDS011;51514;52.206;5.114;2023-02-10T08:54:36;31.38;;;18.33;;
64885;SDS011;51514;52.206;5.114;2023-02-10T08:57:01;28.42;;;17.90;;
64885;SDS011;51514;52.206;5.114;2023-02-10T08:59:26;25.77;;;17.30;;
64885;SDS011;51514;52.206;5.114;2023-02-10T09:01:52;27.98;;;18.00;;
64885;SDS011;51514;52.206;5.114;2023-02-10T09:04:18;28.27;;;16.50;;
64885;SDS011;51514;52.206;5.114;2023-02-10T09:06:43;28.70;;;16.77;;
64885;SDS011;51514;52.206;5.114;2023-02-10T09:09:10;29.13;;;18.83;;
64885;SDS011;51514;52.206;5.114;2023-02-10T09:11:36;26.02;;;17.38;;
64885;SDS011;51514;52.206;5.114;2023-02-10T09:14:02;27.05;;;17.52;;
64885;SDS011;51514;52.206;5.114;2023-02-10T09:16:28;30.67;;;17.88;;
64885;SDS011;51514;52.206;5.114;2023-02-10T09:18:53;26.73;;;16.90;;
64885;SDS011;51514;52.206;5.114;2023-02-10T09:21:19;30.27;;;17.70;;
64885;SDS011;51514;52.206;5.114;2023-02-10T09:23:44;26.23;;;17.55;;
64885;SDS011;51514;52.206;5.114;2023-02-10T09:26:10;29.20;;;17.95;;
64885;SDS011;51514;52.206;5.114;2023-02-10T09:28:35;27.17;;;16.83;;
64885;SDS011;51514;52.206;5.114;2023-02-10T09:31:01;25.88;;;17.50;;
64885;SDS011;51514;52.206;5.114;2023-02-10T09:33:29;25.15;;;18.23;;
64885;SDS011;51514;52.206;5.114;2023-02-10T09:35:54;29.25;;;18.13;;
64885;SDS011;51514;52.206;5.114;2023-02-10T09:38:19;28.08;;;17.15;;
64885;SDS011;51514;52.206;5.114;2023-02-10T09:53:54;27.67;;;17.92;;
64885;SDS011;51514;52.206;5.114;2023-02-10T09:56:20;31.15;;;17.63;;
64885;SDS011;51514;52.206;5.114;2023-02-10T09:58:50;25.90;;;17.50;;
64885;SDS011;51514;52.206;5.114;2023-02-10T10:04:10;25.42;;;16.13;;
64885;SDS011;51514;52.206;5.114;2023-02-10T10:06:39;26.50;;;17.27;;
64885;SDS011;51514;52.206;5.114;2023-02-10T10:14:27;25.35;;;15.88;;
64885;SDS011;51514;52.206;5.114;2023-02-10T10:19:49;25.60;;;15.32;;
64885;SDS011;51514;52.206;5.114;2023-02-10T10:28:08;24.42;;;15.98;;
64885;SDS011;51514;52.206;5.114;2023-02-10T10:31:10;27.83;;;15.10;;
64885;SDS011;51514;52.206;5.114;2023-02-10T10:36:17;28.98;;;16.02;;
64885;SDS011;51514;52.206;5.114;2023-02-10T10:38:47;28.55;;;15.70;;
64885;SDS011;51514;52.206;5.114;2023-02-10T10:41:15;23.80;;;15.80;;
64885;SDS011;51514;52.206;5.114;2023-02-10T10:43:48;24.33;;;15.10;;
64885;SDS011;51514;52.206;5.114;2023-02-10T10:49:24;23.15;;;14.93;;
64885;SDS011;51514;52.206;5.114;2023-02-10T10:51:49;29.88;;;16.45;;
64885;SDS011;51514;52.206;5.114;2023-02-10T10:54:15;22.95;;;15.45;;
64885;SDS011;51514;52.206;5.114;2023-02-10T10:56:50;24.52;;;15.82;;
64885;SDS011;51514;52.206;5.114;2023-02-10T11:01:53;24.65;;;14.90;;
64885;SDS011;51514;52.206;5.114;2023-02-10T11:04:19;25.67;;;14.55;;
64885;SDS011;51514;52.206;5.114;2023-02-10T11:06:51;23.15;;;14.85;;
64885;SDS011;51514;52.206;5.114;2023-02-10T11:12:15;24.33;;;14.77;;
64885;SDS011;51514;52.206;5.114;2023-02-10T11:14:53;23.30;;;16.20;;
64885;SDS011;51514;52.206;5.114;2023-02-10T11:22:36;23.50;;;15.23;;
64885;SDS011;51514;52.206;5.114;2023-02-10T11:25:03;29.08;;;16.13;;
64885;SDS011;51514;52.206;5.114;2023-02-10T11:27:50;22.02;;;14.63;;
64885;SDS011;51514;52.206;5.114;2023-02-10T11:30:30;25.20;;;15.13;;
64885;SDS011;51514;52.206;5.114;2023-02-10T11:33:00;23.70;;;15.95;;
64885;SDS011;51514;52.206;5.114;2023-02-10T11:35:27;22.00;;;13.23;;
64885;SDS011;51514;52.206;5.114;2023-02-10T11:38:00;21.63;;;14.27;;
64885;SDS011;51514;52.206;5.114;2023-02-10T11:40:29;23.42;;;14.60;;
64885;SDS011;51514;52.206;5.114;2023-02-10T11:43:10;29.23;;;15.30;;
64885;SDS011;51514;52.206;5.114;2023-02-10T11:45:39;22.88;;;13.82;;
64885;SDS011;51514;52.206;5.114;2023-02-10T11:48:17;24.33;;;14.82;;
64885;SDS011;51514;52.206;5.114;2023-02-10T11:53:27;24.75;;;13.88;;
64885;SDS011;51514;52.206;5.114;2023-02-10T11:56:06;23.60;;;14.00;;
64885;SDS011;51514;52.206;5.114;2023-02-10T12:01:50;23.73;;;14.05;;
64885;SDS011;51514;52.206;5.114;2023-02-10T12:07:06;24.95;;;13.93;;
64885;SDS011;51514;52.206;5.114;2023-02-10T12:09:43;23.80;;;12.83;;
64885;SDS011;51514;52.206;5.114;2023-02-10T12:18:27;23.48;;;13.73;;
64885;SDS011;51514;52.206;5.114;2023-02-10T12:21:03;22.25;;;13.75;;
64885;SDS011;51514;52.206;5.114;2023-02-10T12:26:18;24.23;;;13.57;;
64885;SDS011;51514;52.206;5.114;2023-02-10T12:29:11;22.10;;;11.93;;
64885;SDS011;51514;52.206;5.114;2023-02-10T12:31:54;24.88;;;13.52;;
64885;SDS011;51514;52.206;5.114;2023-02-10T12:37:16;19.42;;;12.32;;
64885;SDS011;51514;52.206;5.114;2023-02-10T12:45:44;25.88;;;13.32;;
64885;SDS011;51514;52.206;5.114;2023-02-10T12:48:24;25.70;;;14.25;;
64885;SDS011;51514;52.206;5.114;2023-02-10T12:53:25;26.17;;;14.20;;
64885;SDS011;51514;52.206;5.114;2023-02-10T12:56:00;25.65;;;14.00;;
64885;SDS011;51514;52.206;5.114;2023-02-10T12:58:34;25.70;;;14.88;;
64885;SDS011;51514;52.206;5.114;2023-02-10T13:01:31;33.70;;;16.90;;
64885;SDS011;51514;52.206;5.114;2023-02-10T13:04:08;34.75;;;16.23;;
64885;SDS011;51514;52.206;5.114;2023-02-10T13:06:55;30.10;;;15.60;;
64885;SDS011;51514;52.206;5.114;2023-02-10T13:09:25;28.45;;;16.45;;
64885;SDS011;51514;52.206;5.114;2023-02-10T13:12:10;31.20;;;17.05;;
64885;SDS011;51514;52.206;5.114;2023-02-10T13:15:11;33.13;;;17.48;;
64885;SDS011;51514;52.206;5.114;2023-02-10T13:17:47;31.92;;;15.82;;
64885;SDS011;51514;52.206;5.114;2023-02-10T13:23:27;32.00;;;16.90;;
64885;SDS011;51514;52.206;5.114;2023-02-10T13:34:58;29.17;;;16.77;;
64885;SDS011;51514;52.206;5.114;2023-02-10T13:37:39;28.38;;;16.65;;
64885;SDS011;51514;52.206;5.114;2023-02-10T13:42:52;28.45;;;16.45;;
64885;SDS011;51514;52.206;5.114;2023-02-10T13:45:26;31.23;;;17.48;;
64885;SDS011;51514;52.206;5.114;2023-02-10T13:48:03;34.45;;;18.60;;
64885;SDS011;51514;52.206;5.114;2023-02-10T13:58:32;35.17;;;20.77;;
64885;SDS011;51514;52.206;5.114;2023-02-10T14:00:59;34.97;;;22.08;;
64885;SDS011;51514;52.206;5.114;2023-02-10T14:03:27;42.55;;;22.90;;
64885;SDS011;51514;52.206;5.114;2023-02-10T14:13:30;47.13;;;26.40;;
64885;SDS011;51514;52.206;5.114;2023-02-10T14:15:59;37.97;;;25.88;;
64885;SDS011;51514;52.206;5.114;2023-02-10T14:18:45;41.33;;;25.60;;
64885;SDS011;51514;52.206;5.114;2023-02-10T14:21:21;45.75;;;27.83;;
64885;SDS011;51514;52.206;5.114;2023-02-10T14:23:50;47.25;;;27.10;;
64885;SDS011;51514;52.206;5.114;2023-02-10T14:26:19;43.55;;;27.77;;
64885;SDS011;51514;52.206;5.114;2023-02-10T14:28:48;49.00;;;29.50;;
64885;SDS011;51514;52.206;5.114;2023-02-10T14:31:20;47.65;;;29.60;;
64885;SDS011;51514;52.206;5.114;2023-02-10T14:33:52;47.20;;;28.83;;
64885;SDS011;51514;52.206;5.114;2023-02-10T14:36:22;52.22;;;30.42;;
64885;SDS011;51514;52.206;5.114;2023-02-10T14:38:52;48.35;;;30.20;;
64885;SDS011;51514;52.206;5.114;2023-02-10T14:41:19;45.65;;;28.85;;
64885;SDS011;51514;52.206;5.114;2023-02-10T14:43:46;52.15;;;29.75;;
64885;SDS011;51514;52.206;5.114;2023-02-10T14:46:28;47.15;;;28.35;;
64885;SDS011;51514;52.206;5.114;2023-02-10T14:49:02;49.42;;;31.23;;
64885;SDS011;51514;52.206;5.114;2023-02-10T14:51:37;48.97;;;30.15;;
64885;SDS011;51514;52.206;5.114;2023-02-10T14:54:23;45.65;;;30.08;;
64885;SDS011;51514;52.206;5.114;2023-02-10T14:56:58;49.17;;;32.17;;
64885;SDS011;51514;52.206;5.114;2023-02-10T14:59:30;51.20;;;31.63;;
64885;SDS011;51514;52.206;5.114;2023-02-10T15:02:03;51.05;;;31.48;;
64885;SDS011;51514;52.206;5.114;2023-02-10T15:04:35;46.78;;;30.48;;
64885;SDS011;51514;52.206;5.114;2023-02-10T15:07:01;52.92;;;32.95;;
64885;SDS011;51514;52.206;5.114;2023-02-10T15:09:33;50.38;;;32.47;;
64885;SDS011;51514;52.206;5.114;2023-02-10T15:12:03;55.78;;;33.65;;
64885;SDS011;51514;52.206;5.114;2023-02-10T15:14:49;53.03;;;32.40;;
64885;SDS011;51514;52.206;5.114;2023-02-10T15:17:29;55.72;;;34.58;;
64885;SDS011;51514;52.206;5.114;2023-02-10T15:20:16;57.97;;;32.72;;
64885;SDS011;51514;52.206;5.114;2023-02-10T15:22:51;54.55;;;32.83;;
64885;SDS011;51514;52.206;5.114;2023-02-10T15:27:58;56.95;;;33.70;;
64885;SDS011;51514;52.206;5.114;2023-02-10T15:31:03;63.30;;;37.05;;
64885;SDS011;51514;52.206;5.114;2023-02-10T15:33:32;54.47;;;34.20;;
64885;SDS011;51514;52.206;5.114;2023-02-10T15:38:42;61.78;;;34.67;;
64885;SDS011;51514;52.206;5.114;2023-02-10T15:41:21;60.30;;;35.17;;
64885;SDS011;51514;52.206;5.114;2023-02-10T15:43:50;62.70;;;35.40;;
64885;SDS011;51514;52.206;5.114;2023-02-10T15:46:16;57.88;;;36.13;;
64885;SDS011;51514;52.206;5.114;2023-02-10T15:48:42;62.75;;;36.10;;
64885;SDS011;51514;52.206;5.114;2023-02-10T15:53:50;58.72;;;33.42;;
64885;SDS011;51514;52.206;5.114;2023-02-10T15:56:20;56.70;;;34.13;;
64885;SDS011;51514;52.206;5.114;2023-02-10T15:58:48;56.13;;;32.78;;
64885;SDS011;51514;52.206;5.114;2023-02-10T16:01:14;50.90;;;33.97;;
64885;SDS011;51514;52.206;5.114;2023-02-10T16:03:39;60.20;;;33.42;;
64885;SDS011;51514;52.206;5.114;2023-02-10T16:06:04;56.03;;;32.38;;
64885;SDS011;51514;52.206;5.114;2023-02-10T16:08:30;54.60;;;33.75;;
64885;SDS011;51514;52.206;5.114;2023-02-10T16:10:56;61.28;;;33.58;;
64885;SDS011;51514;52.206;5.114;2023-02-10T16:13:21;61.85;;;33.17;;
64885;SDS011;51514;52.206;5.114;2023-02-10T16:15:47;59.25;;;33.88;;
64885;SDS011;51514;52.206;5.114;2023-02-10T16:18:20;61.45;;;35.00;;
64885;SDS011;51514;52.206;5.114;2023-02-10T16:20:47;54.20;;;32.50;;
64885;SDS011;51514;52.206;5.114;2023-02-10T16:23:14;55.17;;;33.40;;
64885;SDS011;51514;52.206;5.114;2023-02-10T16:25:41;53.03;;;32.35;;
64885;SDS011;51514;52.206;5.114;2023-02-10T16:28:06;58.50;;;34.80;;
64885;SDS011;51514;52.206;5.114;2023-02-10T16:30:33;55.38;;;33.92;;
64885;SDS011;51514;52.206;5.114;2023-02-10T16:33:00;62.90;;;35.40;;
64885;SDS011;51514;52.206;5.114;2023-02-10T16:35:27;59.67;;;35.85;;
64885;SDS011;51514;52.206;5.114;2023-02-10T16:37:52;58.75;;;33.38;;
64885;SDS011;51514;52.206;5.114;2023-02-10T16:40:23;58.35;;;33.55;;
64885;SDS011;51514;52.206;5.114;2023-02-10T16:42:50;61.97;;;35.05;;
64885;SDS011;51514;52.206;5.114;2023-02-10T16:45:17;59.70;;;35.28;;
64885;SDS011;51514;52.206;5.114;2023-02-10T16:47:43;64.88;;;36.55;;
64885;SDS011;51514;52.206;5.114;2023-02-10T16:50:13;59.22;;;35.40;;
64885;SDS011;51514;52.206;5.114;2023-02-10T16:52:47;63.30;;;35.28;;